sensor_id;sensor_type;location;lat;lon;timestamp;temperature;humidity
67273;DHT22;54190;49.770;9.250;2024-02-21T00:00:37;7.50;99.90
67273;DHT22;54190;49.770;9.250;2024-02-21T00:03:04;7.50;99.90
67273;DHT22;54190;49.770;9.250;2024-02-21T00:05:30;7.50;99.90
67273;DHT22;54190;49.770;9.250;2024-02-21T00:07:57;7.40;99.90
67273;DHT22;54190;49.770;9.250;2024-02-21T00:10:23;7.50;99.90
67273;DHT22;54190;49.770;9.250;2024-02-21T00:12:48;7.50;99.90
67273;DHT22;54190;49.770;9.250;2024-02-21T00:15:14;7.50;99.90
67273;DHT22;54190;49.770;9.250;2024-02-21T00:17:40;7.50;99.90
67273;DHT22;54190;49.770;9.250;2024-02-21T00:20:07;7.50;99.90
67273;DHT22;54190;49.770;9.250;2024-02-21T00:22:33;7.50;99.90
67273;DHT22;54190;49.770;9.250;2024-02-21T00:24:59;7.50;99.90
67273;DHT22;54190;49.770;9.250;2024-02-21T00:27:25;7.50;99.90
67273;DHT22;54190;49.770;9.250;2024-02-21T00:29:50;7.50;99.90
67273;DHT22;54190;49.770;9.250;2024-02-21T00:32:16;7.50;99.90
67273;DHT22;54190;49.770;9.250;2024-02-21T00:34:42;7.50;99.90
67273;DHT22;54190;49.770;9.250;2024-02-21T00:37:07;7.50;99.90
67273;DHT22;54190;49.770;9.250;2024-02-21T00:39:33;7.50;99.90
67273;DHT22;54190;49.770;9.250;2024-02-21T00:41:59;7.50;99.90
67273;DHT22;54190;49.770;9.250;2024-02-21T00:44:24;7.50;99.90
67273;DHT22;54190;49.770;9.250;2024-02-21T00:46:50;7.50;99.90
67273;DHT22;54190;49.770;9.250;2024-02-21T00:49:16;7.50;99.90
67273;DHT22;54190;49.770;9.250;2024-02-21T00:51:41;7.50;99.90
67273;DHT22;54190;49.770;9.250;2024-02-21T00:54:07;7.60;99.90
67273;DHT22;54190;49.770;9.250;2024-02-21T00:56:33;7.60;99.90
67273;DHT22;54190;49.770;9.250;2024-02-21T00:58:58;7.60;99.90
67273;DHT22;54190;49.770;9.250;2024-02-21T01:01:25;7.60;99.90
67273;DHT22;54190;49.770;9.250;2024-02-21T01:03:50;7.60;99.90
67273;DHT22;54190;49.770;9.250;2024-02-21T01:06:19;7.60;99.90
67273;DHT22;54190;49.770;9.250;2024-02-21T01:08:46;7.60;99.90
67273;DHT22;54190;49.770;9.250;2024-02-21T01:11:12;7.60;99.90
67273;DHT22;54190;49.770;9.250;2024-02-21T01:13:38;7.60;99.90
67273;DHT22;54190;49.770;9.250;2024-02-21T01:16:04;7.60;99.90
67273;DHT22;54190;49.770;9.250;2024-02-21T01:18:29;7.60;99.90
67273;DHT22;54190;49.770;9.250;2024-02-21T01:20:55;7.60;99.90
67273;DHT22;54190;49.770;9.250;2024-02-21T01:23:21;7.60;99.90
67273;DHT22;54190;49.770;9.250;2024-02-21T01:25:46;7.60;99.90
67273;DHT22;54190;49.770;9.250;2024-02-21T01:28:12;7.50;99.90
67273;DHT22;54190;49.770;9.250;2024-02-21T01:30:37;7.60;99.90
67273;DHT22;54190;49.770;9.250;2024-02-21T01:33:03;7.50;99.90
67273;DHT22;54190;49.770;9.250;2024-02-21T01:35:29;7.50;99.90
67273;DHT22;54190;49.770;9.250;2024-02-21T01:37:54;7.50;99.90
67273;DHT22;54190;49.770;9.250;2024-02-21T01:40:20;7.50;99.90
67273;DHT22;54190;49.770;9.250;2024-02-21T01:42:46;7.40;99.90
67273;DHT22;54190;49.770;9.250;2024-02-21T01:45:13;7.40;99.90
67273;DHT22;54190;49.770;9.250;2024-02-21T01:47:39;7.40;99.90
67273;DHT22;54190;49.770;9.250;2024-02-21T02:01:35;7.40;99.90
67273;DHT22;54190;49.770;9.250;2024-02-21T02:04:00;7.40;99.90
67273;DHT22;54190;49.770;9.250;2024-02-21T02:06:26;7.40;99.90
67273;DHT22;54190;49.770;9.250;2024-02-21T02:08:53;7.40;99.90
67273;DHT22;54190;49.770;9.250;2024-02-21T02:11:20;7.40;99.90
67273;DHT22;54190;49.770;9.250;2024-02-21T02:13:45;7.50;99.90
67273;DHT22;54190;49.770;9.250;2024-02-21T02:16:11;7.40;99.90
67273;DHT22;54190;49.770;9.250;2024-02-21T02:18:37;7.50;99.90
67273;DHT22;54190;49.770;9.250;2024-02-21T02:21:04;7.50;99.90
67273;DHT22;54190;49.770;9.250;2024-02-21T02:23:33;7.40;99.90
67273;DHT22;54190;49.770;9.250;2024-02-21T02:25:59;7.50;99.90
67273;DHT22;54190;49.770;9.250;2024-02-21T02:28:26;7.50;99.90
67273;DHT22;54190;49.770;9.250;2024-02-21T02:30:52;7.50;99.90
67273;DHT22;54190;49.770;9.250;2024-02-21T02:33:18;7.40;99.90
67273;DHT22;54190;49.770;9.250;2024-02-21T02:35:44;7.40;99.90
67273;DHT22;54190;49.770;9.250;2024-02-21T02:38:10;7.40;99.90
67273;DHT22;54190;49.770;9.250;2024-02-21T02:40:38;7.40;99.90
67273;DHT22;54190;49.770;9.250;2024-02-21T02:43:04;7.40;99.90
67273;DHT22;54190;49.770;9.250;2024-02-21T02:45:30;7.30;99.90
67273;DHT22;54190;49.770;9.250;2024-02-21T02:47:57;7.40;99.90
67273;DHT22;54190;49.770;9.250;2024-02-21T02:50:26;7.40;99.90
67273;DHT22;54190;49.770;9.250;2024-02-21T02:52:52;7.40;99.90
67273;DHT22;54190;49.770;9.250;2024-02-21T02:55:18;7.40;99.90
67273;DHT22;54190;49.770;9.250;2024-02-21T02:57:44;7.40;99.90
67273;DHT22;54190;49.770;9.250;2024-02-21T03:00:14;7.40;99.90
67273;DHT22;54190;49.770;9.250;2024-02-21T03:02:42;7.40;99.90
67273;DHT22;54190;49.770;9.250;2024-02-21T03:05:17;7.40;99.90
67273;DHT22;54190;49.770;9.250;2024-02-21T03:07:44;7.40;99.90
67273;DHT22;54190;49.770;9.250;2024-02-21T03:10:10;7.40;99.90
67273;DHT22;54190;49.770;9.250;2024-02-21T03:12:36;7.40;99.90
67273;DHT22;54190;49.770;9.250;2024-02-21T03:15:02;7.30;99.90
67273;DHT22;54190;49.770;9.250;2024-02-21T03:17:28;7.30;99.90
67273;DHT22;54190;49.770;9.250;2024-02-21T03:19:54;7.30;99.90
67273;DHT22;54190;49.770;9.250;2024-02-21T03:22:21;7.30;99.90
67273;DHT22;54190;49.770;9.250;2024-02-21T03:24:47;7.20;99.90
67273;DHT22;54190;49.770;9.250;2024-02-21T03:27:13;7.20;99.90
67273;DHT22;54190;49.770;9.250;2024-02-21T03:29:38;7.20;99.90
67273;DHT22;54190;49.770;9.250;2024-02-21T03:32:04;7.10;99.90
67273;DHT22;54190;49.770;9.250;2024-02-21T03:34:30;7.10;99.90
67273;DHT22;54190;49.770;9.250;2024-02-21T03:36:55;7.10;99.90
67273;DHT22;54190;49.770;9.250;2024-02-21T03:39:21;7.10;99.90
67273;DHT22;54190;49.770;9.250;2024-02-21T03:41:47;7.10;99.90
67273;DHT22;54190;49.770;9.250;2024-02-21T03:44:13;7.10;99.90
67273;DHT22;54190;49.770;9.250;2024-02-21T03:46:38;7.10;99.90
67273;DHT22;54190;49.770;9.250;2024-02-21T03:49:04;7.10;99.90
67273;DHT22;54190;49.770;9.250;2024-02-21T03:51:29;7.10;99.90
67273;DHT22;54190;49.770;9.250;2024-02-21T03:53:55;7.10;99.90
67273;DHT22;54190;49.770;9.250;2024-02-21T03:56:21;7.10;99.90
67273;DHT22;54190;49.770;9.250;2024-02-21T03:58:46;7.10;99.90
67273;DHT22;54190;49.770;9.250;2024-02-21T04:01:14;7.10;99.90
67273;DHT22;54190;49.770;9.250;2024-02-21T04:03:40;7.10;99.90
67273;DHT22;54190;49.770;9.250;2024-02-21T04:06:06;7.10;99.90
67273;DHT22;54190;49.770;9.250;2024-02-21T04:08:31;7.00;99.90
67273;DHT22;54190;49.770;9.250;2024-02-21T04:10:57;7.00;99.90
67273;DHT22;54190;49.770;9.250;2024-02-21T04:13:22;7.00;99.90
67273;DHT22;54190;49.770;9.250;2024-02-21T04:15:48;6.90;99.90
67273;DHT22;54190;49.770;9.250;2024-02-21T04:18:14;6.80;99.90
67273;DHT22;54190;49.770;9.250;2024-02-21T04:20:40;6.80;99.90
67273;DHT22;54190;49.770;9.250;2024-02-21T04:23:06;6.80;99.90
67273;DHT22;54190;49.770;9.250;2024-02-21T04:25:31;6.80;99.90
67273;DHT22;54190;49.770;9.250;2024-02-21T04:27:57;6.80;99.90
67273;DHT22;54190;49.770;9.250;2024-02-21T04:30:23;6.70;99.90
67273;DHT22;54190;49.770;9.250;2024-02-21T04:32:48;6.70;99.90
67273;DHT22;54190;49.770;9.250;2024-02-21T04:35:14;6.70;99.90
67273;DHT22;54190;49.770;9.250;2024-02-21T04:37:39;6.70;99.90
67273;DHT22;54190;49.770;9.250;2024-02-21T04:40:06;6.60;99.90
67273;DHT22;54190;49.770;9.250;2024-02-21T04:42:31;6.60;99.90
67273;DHT22;54190;49.770;9.250;2024-02-21T04:44:57;6.60;99.90
67273;DHT22;54190;49.770;9.250;2024-02-21T04:47:23;6.60;99.90
67273;DHT22;54190;49.770;9.250;2024-02-21T04:49:52;6.60;99.90
67273;DHT22;54190;49.770;9.250;2024-02-21T04:52:17;6.70;99.90
67273;DHT22;54190;49.770;9.250;2024-02-21T04:54:43;6.70;99.90
67273;DHT22;54190;49.770;9.250;2024-02-21T04:57:08;6.70;99.90
67273;DHT22;54190;49.770;9.250;2024-02-21T04:59:36;6.70;99.90
67273;DHT22;54190;49.770;9.250;2024-02-21T05:02:02;6.70;99.90
67273;DHT22;54190;49.770;9.250;2024-02-21T05:04:28;6.70;99.90
67273;DHT22;54190;49.770;9.250;2024-02-21T05:06:53;6.70;99.90
67273;DHT22;54190;49.770;9.250;2024-02-21T05:09:20;6.70;99.90
67273;DHT22;54190;49.770;9.250;2024-02-21T05:11:45;6.80;99.90
67273;DHT22;54190;49.770;9.250;2024-02-21T05:14:11;6.70;99.90
67273;DHT22;54190;49.770;9.250;2024-02-21T05:16:38;6.80;99.90
67273;DHT22;54190;49.770;9.250;2024-02-21T05:19:04;6.70;99.90
67273;DHT22;54190;49.770;9.250;2024-02-21T05:21:30;6.70;99.90
67273;DHT22;54190;49.770;9.250;2024-02-21T05:23:56;6.70;99.90
67273;DHT22;54190;49.770;9.250;2024-02-21T05:26:25;6.60;99.90
67273;DHT22;54190;49.770;9.250;2024-02-21T05:28:51;6.70;99.90
67273;DHT22;54190;49.770;9.250;2024-02-21T05:31:20;6.60;99.90
67273;DHT22;54190;49.770;9.250;2024-02-21T05:33:46;6.70;99.90
67273;DHT22;54190;49.770;9.250;2024-02-21T05:36:12;6.60;99.90
67273;DHT22;54190;49.770;9.250;2024-02-21T05:38:38;6.60;99.90
67273;DHT22;54190;49.770;9.250;2024-02-21T05:41:04;6.60;99.90
67273;DHT22;54190;49.770;9.250;2024-02-21T05:43:30;6.60;99.90
67273;DHT22;54190;49.770;9.250;2024-02-21T05:45:56;6.70;99.90
67273;DHT22;54190;49.770;9.250;2024-02-21T05:48:22;6.70;99.90
67273;DHT22;54190;49.770;9.250;2024-02-21T05:50:48;6.60;99.90
67273;DHT22;54190;49.770;9.250;2024-02-21T05:53:14;6.60;99.90
67273;DHT22;54190;49.770;9.250;2024-02-21T05:55:41;6.60;99.90
67273;DHT22;54190;49.770;9.250;2024-02-21T05:58:07;6.50;99.90
67273;DHT22;54190;49.770;9.250;2024-02-21T06:00:33;6.40;99.90
67273;DHT22;54190;49.770;9.250;2024-02-21T06:02:59;6.30;99.90
67273;DHT22;54190;49.770;9.250;2024-02-21T06:05:24;6.30;99.90
67273;DHT22;54190;49.770;9.250;2024-02-21T06:07:50;6.20;99.90
67273;DHT22;54190;49.770;9.250;2024-02-21T06:10:16;6.20;99.90
67273;DHT22;54190;49.770;9.250;2024-02-21T06:12:41;6.10;99.90
67273;DHT22;54190;49.770;9.250;2024-02-21T06:15:07;6.10;99.90
67273;DHT22;54190;49.770;9.250;2024-02-21T06:17:33;6.00;99.90
67273;DHT22;54190;49.770;9.250;2024-02-21T06:19:59;6.00;99.90
67273;DHT22;54190;49.770;9.250;2024-02-21T06:22:24;6.00;99.90
67273;DHT22;54190;49.770;9.250;2024-02-21T06:24:50;6.00;99.90
67273;DHT22;54190;49.770;9.250;2024-02-21T06:27:16;5.90;99.90
67273;DHT22;54190;49.770;9.250;2024-02-21T06:29:42;5.90;99.90
67273;DHT22;54190;49.770;9.250;2024-02-21T06:32:08;5.90;99.90
67273;DHT22;54190;49.770;9.250;2024-02-21T06:34:34;5.90;99.90
67273;DHT22;54190;49.770;9.250;2024-02-21T06:36:59;5.80;99.90
67273;DHT22;54190;49.770;9.250;2024-02-21T06:39:25;5.70;99.90
67273;DHT22;54190;49.770;9.250;2024-02-21T06:41:51;5.70;99.90
67273;DHT22;54190;49.770;9.250;2024-02-21T06:44:17;5.70;99.90
67273;DHT22;54190;49.770;9.250;2024-02-21T06:46:43;5.70;99.90
67273;DHT22;54190;49.770;9.250;2024-02-21T06:49:08;5.70;99.90
67273;DHT22;54190;49.770;9.250;2024-02-21T06:51:34;5.70;99.90
67273;DHT22;54190;49.770;9.250;2024-02-21T06:54:00;5.70;99.90
67273;DHT22;54190;49.770;9.250;2024-02-21T06:56:26;5.70;99.90
67273;DHT22;54190;49.770;9.250;2024-02-21T06:58:55;5.70;99.90
67273;DHT22;54190;49.770;9.250;2024-02-21T07:01:21;5.80;99.90
67273;DHT22;54190;49.770;9.250;2024-02-21T07:03:46;5.80;99.90
67273;DHT22;54190;49.770;9.250;2024-02-21T07:06:12;5.80;99.90
67273;DHT22;54190;49.770;9.250;2024-02-21T07:08:38;5.90;99.90
67273;DHT22;54190;49.770;9.250;2024-02-21T07:11:04;5.90;99.90
67273;DHT22;54190;49.770;9.250;2024-02-21T07:13:30;5.90;99.90
67273;DHT22;54190;49.770;9.250;2024-02-21T07:15:56;5.90;99.90
67273;DHT22;54190;49.770;9.250;2024-02-21T07:18:22;6.00;99.90
67273;DHT22;54190;49.770;9.250;2024-02-21T07:20:47;6.00;99.90
67273;DHT22;54190;49.770;9.250;2024-02-21T07:23:13;6.00;99.90
67273;DHT22;54190;49.770;9.250;2024-02-21T07:25:39;6.00;99.90
67273;DHT22;54190;49.770;9.250;2024-02-21T07:28:05;6.00;99.90
67273;DHT22;54190;49.770;9.250;2024-02-21T07:30:31;6.00;99.90
67273;DHT22;54190;49.770;9.250;2024-02-21T07:32:57;6.10;99.90
67273;DHT22;54190;49.770;9.250;2024-02-21T07:35:23;6.20;99.90
67273;DHT22;54190;49.770;9.250;2024-02-21T07:37:48;6.20;99.90
67273;DHT22;54190;49.770;9.250;2024-02-21T07:40:15;6.30;99.90
67273;DHT22;54190;49.770;9.250;2024-02-21T07:42:41;6.30;99.90
67273;DHT22;54190;49.770;9.250;2024-02-21T07:45:08;6.40;99.90
67273;DHT22;54190;49.770;9.250;2024-02-21T07:47:34;6.50;99.90
67273;DHT22;54190;49.770;9.250;2024-02-21T07:50:00;6.60;99.90
67273;DHT22;54190;49.770;9.250;2024-02-21T07:52:25;6.80;99.90
67273;DHT22;54190;49.770;9.250;2024-02-21T07:54:51;6.80;99.90
67273;DHT22;54190;49.770;9.250;2024-02-21T07:57:17;6.90;99.90
67273;DHT22;54190;49.770;9.250;2024-02-21T07:59:42;6.90;99.90
67273;DHT22;54190;49.770;9.250;2024-02-21T08:02:08;7.00;99.90
67273;DHT22;54190;49.770;9.250;2024-02-21T08:04:34;6.90;99.90
67273;DHT22;54190;49.770;9.250;2024-02-21T08:07:00;6.90;99.90
67273;DHT22;54190;49.770;9.250;2024-02-21T08:09:30;7.00;99.90
67273;DHT22;54190;49.770;9.250;2024-02-21T08:11:56;7.00;99.90
67273;DHT22;54190;49.770;9.250;2024-02-21T08:14:22;7.10;99.90
67273;DHT22;54190;49.770;9.250;2024-02-21T08:16:48;7.10;99.90
67273;DHT22;54190;49.770;9.250;2024-02-21T08:19:13;7.10;99.90
67273;DHT22;54190;49.770;9.250;2024-02-21T08:21:39;7.20;99.90
67273;DHT22;54190;49.770;9.250;2024-02-21T08:24:05;7.30;99.90
67273;DHT22;54190;49.770;9.250;2024-02-21T08:26:30;7.30;99.90
67273;DHT22;54190;49.770;9.250;2024-02-21T08:28:59;7.40;99.90
67273;DHT22;54190;49.770;9.250;2024-02-21T08:31:26;7.50;99.90
67273;DHT22;54190;49.770;9.250;2024-02-21T08:33:58;7.60;99.90
67273;DHT22;54190;49.770;9.250;2024-02-21T08:36:34;7.60;99.90
67273;DHT22;54190;49.770;9.250;2024-02-21T08:39:00;7.60;99.90
67273;DHT22;54190;49.770;9.250;2024-02-21T08:41:26;7.60;99.90
67273;DHT22;54190;49.770;9.250;2024-02-21T08:43:52;7.60;99.90
67273;DHT22;54190;49.770;9.250;2024-02-21T08:46:25;7.60;99.90
67273;DHT22;54190;49.770;9.250;2024-02-21T08:48:52;7.60;99.90
67273;DHT22;54190;49.770;9.250;2024-02-21T08:51:18;7.70;99.90
67273;DHT22;54190;49.770;9.250;2024-02-21T08:53:45;7.60;99.90
67273;DHT22;54190;49.770;9.250;2024-02-21T08:56:11;7.60;99.90
67273;DHT22;54190;49.770;9.250;2024-02-21T08:58:37;7.60;99.90
67273;DHT22;54190;49.770;9.250;2024-02-21T09:01:06;7.60;99.90
67273;DHT22;54190;49.770;9.250;2024-02-21T09:03:33;7.60;99.90
67273;DHT22;54190;49.770;9.250;2024-02-21T09:05:59;7.70;99.90
67273;DHT22;54190;49.770;9.250;2024-02-21T09:08:25;7.70;99.90
67273;DHT22;54190;49.770;9.250;2024-02-21T09:10:51;7.70;99.90
67273;DHT22;54190;49.770;9.250;2024-02-21T09:13:17;7.70;99.90
67273;DHT22;54190;49.770;9.250;2024-02-21T09:15:43;7.70;99.90
67273;DHT22;54190;49.770;9.250;2024-02-21T09:18:08;7.80;99.90
67273;DHT22;54190;49.770;9.250;2024-02-21T09:20:34;7.80;99.90
67273;DHT22;54190;49.770;9.250;2024-02-21T09:23:00;7.80;99.90
67273;DHT22;54190;49.770;9.250;2024-02-21T09:25:25;7.90;99.90
67273;DHT22;54190;49.770;9.250;2024-02-21T09:27:53;7.90;99.90
67273;DHT22;54190;49.770;9.250;2024-02-21T09:30:19;8.00;99.90
67273;DHT22;54190;49.770;9.250;2024-02-21T09:32:44;8.00;99.90
67273;DHT22;54190;49.770;9.250;2024-02-21T09:35:10;8.10;99.90
67273;DHT22;54190;49.770;9.250;2024-02-21T09:37:38;8.10;99.90
67273;DHT22;54190;49.770;9.250;2024-02-21T09:40:04;8.20;99.90
67273;DHT22;54190;49.770;9.250;2024-02-21T09:42:37;8.20;99.90
67273;DHT22;54190;49.770;9.250;2024-02-21T09:45:08;8.30;99.90
67273;DHT22;54190;49.770;9.250;2024-02-21T09:47:43;8.40;99.90
67273;DHT22;54190;49.770;9.250;2024-02-21T09:50:16;8.50;99.90
67273;DHT22;54190;49.770;9.250;2024-02-21T09:52:43;8.50;99.90
67273;DHT22;54190;49.770;9.250;2024-02-21T09:55:10;8.50;99.90
67273;DHT22;54190;49.770;9.250;2024-02-21T09:57:38;8.60;99.90
67273;DHT22;54190;49.770;9.250;2024-02-21T10:00:05;8.60;99.90
67273;DHT22;54190;49.770;9.250;2024-02-21T10:02:39;8.70;99.90
67273;DHT22;54190;49.770;9.250;2024-02-21T10:05:05;8.70;99.90
67273;DHT22;54190;49.770;9.250;2024-02-21T10:07:33;8.80;99.90
67273;DHT22;54190;49.770;9.250;2024-02-21T10:10:06;8.90;99.90
67273;DHT22;54190;49.770;9.250;2024-02-21T10:12:32;8.90;99.90
67273;DHT22;54190;49.770;9.250;2024-02-21T10:15:01;9.00;99.90
67273;DHT22;54190;49.770;9.250;2024-02-21T10:17:27;9.10;99.90
67273;DHT22;54190;49.770;9.250;2024-02-21T10:19:53;9.20;99.90
67273;DHT22;54190;49.770;9.250;2024-02-21T10:22:19;9.30;99.90
67273;DHT22;54190;49.770;9.250;2024-02-21T10:24:46;9.40;99.90
67273;DHT22;54190;49.770;9.250;2024-02-21T10:27:12;9.40;99.90
67273;DHT22;54190;49.770;9.250;2024-02-21T10:29:39;9.50;99.90
67273;DHT22;54190;49.770;9.250;2024-02-21T10:34:32;9.60;99.90
67273;DHT22;54190;49.770;9.250;2024-02-21T10:37:04;9.70;99.90
67273;DHT22;54190;49.770;9.250;2024-02-21T10:39:35;9.80;99.90
67273;DHT22;54190;49.770;9.250;2024-02-21T10:42:02;9.90;99.90
67273;DHT22;54190;49.770;9.250;2024-02-21T10:44:32;10.00;99.90
67273;DHT22;54190;49.770;9.250;2024-02-21T10:46:58;10.10;99.90
67273;DHT22;54190;49.770;9.250;2024-02-21T10:49:26;10.20;99.90
67273;DHT22;54190;49.770;9.250;2024-02-21T10:52:10;10.20;99.90
67273;DHT22;54190;49.770;9.250;2024-02-21T10:54:47;10.30;99.90
67273;DHT22;54190;49.770;9.250;2024-02-21T10:57:15;10.40;99.90
67273;DHT22;54190;49.770;9.250;2024-02-21T10:59:44;10.50;99.90
67273;DHT22;54190;49.770;9.250;2024-02-21T11:02:10;10.50;99.90
67273;DHT22;54190;49.770;9.250;2024-02-21T11:04:36;10.50;99.90
67273;DHT22;54190;49.770;9.250;2024-02-21T11:07:05;10.50;99.90
67273;DHT22;54190;49.770;9.250;2024-02-21T11:09:32;10.50;99.90
67273;DHT22;54190;49.770;9.250;2024-02-21T11:11:58;10.50;99.90
67273;DHT22;54190;49.770;9.250;2024-02-21T11:14:27;10.60;99.90
67273;DHT22;54190;49.770;9.250;2024-02-21T11:16:53;10.60;99.90
67273;DHT22;54190;49.770;9.250;2024-02-21T11:21:44;10.70;99.90
67273;DHT22;54190;49.770;9.250;2024-02-21T11:24:09;10.80;99.90
67273;DHT22;54190;49.770;9.250;2024-02-21T11:26:37;10.80;99.90
67273;DHT22;54190;49.770;9.250;2024-02-21T11:29:03;10.80;99.90
67273;DHT22;54190;49.770;9.250;2024-02-21T11:31:41;10.90;99.90
67273;DHT22;54190;49.770;9.250;2024-02-21T11:34:10;10.90;99.90
67273;DHT22;54190;49.770;9.250;2024-02-21T11:36:46;11.00;99.90
67273;DHT22;54190;49.770;9.250;2024-02-21T11:39:12;11.00;99.90
67273;DHT22;54190;49.770;9.250;2024-02-21T11:41:38;11.00;99.90
67273;DHT22;54190;49.770;9.250;2024-02-21T11:44:04;11.00;99.90
67273;DHT22;54190;49.770;9.250;2024-02-21T11:46:29;10.90;99.90
67273;DHT22;54190;49.770;9.250;2024-02-21T11:48:55;11.00;99.90
67273;DHT22;54190;49.770;9.250;2024-02-21T11:51:24;11.10;99.90
67273;DHT22;54190;49.770;9.250;2024-02-21T11:53:54;11.20;99.90
67273;DHT22;54190;49.770;9.250;2024-02-21T11:56:20;11.20;99.90
67273;DHT22;54190;49.770;9.250;2024-02-21T11:58:46;11.20;99.90
67273;DHT22;54190;49.770;9.250;2024-02-21T12:01:15;11.20;99.90
67273;DHT22;54190;49.770;9.250;2024-02-21T12:03:42;11.20;99.90
67273;DHT22;54190;49.770;9.250;2024-02-21T12:06:11;11.30;99.90
67273;DHT22;54190;49.770;9.250;2024-02-21T12:08:43;11.30;99.90
67273;DHT22;54190;49.770;9.250;2024-02-21T12:11:22;11.30;99.90
67273;DHT22;54190;49.770;9.250;2024-02-21T12:14:01;11.30;99.90
67273;DHT22;54190;49.770;9.250;2024-02-21T12:16:30;11.30;99.90
67273;DHT22;54190;49.770;9.250;2024-02-21T12:18:57;11.30;99.90
67273;DHT22;54190;49.770;9.250;2024-02-21T12:21:40;11.30;99.90
67273;DHT22;54190;49.770;9.250;2024-02-21T12:24:17;11.30;99.90
67273;DHT22;54190;49.770;9.250;2024-02-21T12:26:43;11.30;99.90
67273;DHT22;54190;49.770;9.250;2024-02-21T12:29:09;11.30;99.90
67273;DHT22;54190;49.770;9.250;2024-02-21T12:31:38;11.30;99.90
67273;DHT22;54190;49.770;9.250;2024-02-21T12:34:04;11.30;99.90
67273;DHT22;54190;49.770;9.250;2024-02-21T12:36:31;11.20;99.90
67273;DHT22;54190;49.770;9.250;2024-02-21T12:38:57;11.20;99.90
67273;DHT22;54190;49.770;9.250;2024-02-21T12:41:23;11.20;99.90
67273;DHT22;54190;49.770;9.250;2024-02-21T12:43:51;11.20;99.90
67273;DHT22;54190;49.770;9.250;2024-02-21T12:46:16;11.10;99.90
67273;DHT22;54190;49.770;9.250;2024-02-21T12:48:42;10.90;99.90
67273;DHT22;54190;49.770;9.250;2024-02-21T12:51:08;10.90;99.90
67273;DHT22;54190;49.770;9.250;2024-02-21T12:53:33;10.80;99.90
67273;DHT22;54190;49.770;9.250;2024-02-21T12:56:00;10.80;99.90
67273;DHT22;54190;49.770;9.250;2024-02-21T12:58:25;10.70;99.90
67273;DHT22;54190;49.770;9.250;2024-02-21T13:00:51;10.70;99.90
67273;DHT22;54190;49.770;9.250;2024-02-21T13:03:17;10.70;99.90
67273;DHT22;54190;49.770;9.250;2024-02-21T13:05:42;10.70;99.90
67273;DHT22;54190;49.770;9.250;2024-02-21T13:08:11;10.70;99.90
67273;DHT22;54190;49.770;9.250;2024-02-21T13:10:37;10.70;99.90
67273;DHT22;54190;49.770;9.250;2024-02-21T13:13:03;10.70;99.90
67273;DHT22;54190;49.770;9.250;2024-02-21T13:15:29;10.70;99.90
67273;DHT22;54190;49.770;9.250;2024-02-21T13:17:58;10.70;99.90
67273;DHT22;54190;49.770;9.250;2024-02-21T13:20:25;10.80;99.90
67273;DHT22;54190;49.770;9.250;2024-02-21T13:22:51;10.80;99.90
67273;DHT22;54190;49.770;9.250;2024-02-21T13:25:17;10.80;99.90
67273;DHT22;54190;49.770;9.250;2024-02-21T13:27:45;10.80;99.90
67273;DHT22;54190;49.770;9.250;2024-02-21T13:30:11;10.90;99.90
67273;DHT22;54190;49.770;9.250;2024-02-21T13:32:38;10.90;99.90
67273;DHT22;54190;49.770;9.250;2024-02-21T13:35:04;10.80;99.90
67273;DHT22;54190;49.770;9.250;2024-02-21T13:37:31;10.80;99.90
67273;DHT22;54190;49.770;9.250;2024-02-21T13:39:57;10.80;99.90
67273;DHT22;54190;49.770;9.250;2024-02-21T13:42:22;10.70;99.90
67273;DHT22;54190;49.770;9.250;2024-02-21T13:44:49;10.70;99.90
67273;DHT22;54190;49.770;9.250;2024-02-21T13:47:15;10.70;99.90
67273;DHT22;54190;49.770;9.250;2024-02-21T13:49:41;10.70;99.90
67273;DHT22;54190;49.770;9.250;2024-02-21T13:52:07;10.70;99.90
67273;DHT22;54190;49.770;9.250;2024-02-21T13:54:32;10.70;99.90
67273;DHT22;54190;49.770;9.250;2024-02-21T13:56:58;10.60;99.90
67273;DHT22;54190;49.770;9.250;2024-02-21T13:59:23;10.60;99.90
67273;DHT22;54190;49.770;9.250;2024-02-21T14:01:49;10.60;99.90
67273;DHT22;54190;49.770;9.250;2024-02-21T14:04:15;10.60;99.90
67273;DHT22;54190;49.770;9.250;2024-02-21T14:06:40;10.50;99.90
67273;DHT22;54190;49.770;9.250;2024-02-21T14:09:10;10.50;99.90
67273;DHT22;54190;49.770;9.250;2024-02-21T14:11:35;10.60;99.90
67273;DHT22;54190;49.770;9.250;2024-02-21T14:14:03;10.50;99.90
67273;DHT22;54190;49.770;9.250;2024-02-21T14:16:29;10.60;99.90
67273;DHT22;54190;49.770;9.250;2024-02-21T14:18:55;10.60;99.90
67273;DHT22;54190;49.770;9.250;2024-02-21T14:21:20;10.60;99.90
67273;DHT22;54190;49.770;9.250;2024-02-21T14:23:46;10.60;99.90
67273;DHT22;54190;49.770;9.250;2024-02-21T14:26:11;10.70;99.90
67273;DHT22;54190;49.770;9.250;2024-02-21T14:28:40;10.60;99.90
67273;DHT22;54190;49.770;9.250;2024-02-21T14:31:07;10.60;99.90
67273;DHT22;54190;49.770;9.250;2024-02-21T14:33:37;10.60;99.90
67273;DHT22;54190;49.770;9.250;2024-02-21T14:36:03;10.60;99.90
67273;DHT22;54190;49.770;9.250;2024-02-21T14:38:29;10.60;99.90
67273;DHT22;54190;49.770;9.250;2024-02-21T14:40:55;10.50;99.90
67273;DHT22;54190;49.770;9.250;2024-02-21T14:43:21;10.60;99.90
67273;DHT22;54190;49.770;9.250;2024-02-21T14:45:47;10.60;99.90
67273;DHT22;54190;49.770;9.250;2024-02-21T14:48:13;10.60;99.90
67273;DHT22;54190;49.770;9.250;2024-02-21T14:50:39;10.60;99.90
67273;DHT22;54190;49.770;9.250;2024-02-21T14:53:05;10.60;99.90
67273;DHT22;54190;49.770;9.250;2024-02-21T14:55:30;10.60;99.90
67273;DHT22;54190;49.770;9.250;2024-02-21T14:57:56;10.60;99.90
67273;DHT22;54190;49.770;9.250;2024-02-21T15:00:22;10.70;99.90
67273;DHT22;54190;49.770;9.250;2024-02-21T15:02:58;10.70;99.90
67273;DHT22;54190;49.770;9.250;2024-02-21T15:05:24;10.70;99.90
67273;DHT22;54190;49.770;9.250;2024-02-21T15:07:50;10.70;99.90
67273;DHT22;54190;49.770;9.250;2024-02-21T15:10:16;10.70;99.90
67273;DHT22;54190;49.770;9.250;2024-02-21T15:12:45;10.80;99.90
67273;DHT22;54190;49.770;9.250;2024-02-21T15:15:11;10.80;99.90
67273;DHT22;54190;49.770;9.250;2024-02-21T15:17:36;10.80;99.90
67273;DHT22;54190;49.770;9.250;2024-02-21T15:20:02;10.80;99.90
67273;DHT22;54190;49.770;9.250;2024-02-21T15:22:30;10.80;99.90
67273;DHT22;54190;49.770;9.250;2024-02-21T15:24:55;10.80;99.90
67273;DHT22;54190;49.770;9.250;2024-02-21T15:27:24;10.80;99.90
67273;DHT22;54190;49.770;9.250;2024-02-21T15:29:51;10.80;99.90
67273;DHT22;54190;49.770;9.250;2024-02-21T15:32:17;10.80;99.90
67273;DHT22;54190;49.770;9.250;2024-02-21T15:34:43;10.90;99.90
67273;DHT22;54190;49.770;9.250;2024-02-21T15:37:09;10.90;99.90
67273;DHT22;54190;49.770;9.250;2024-02-21T15:39:36;10.90;99.90
67273;DHT22;54190;49.770;9.250;2024-02-21T15:42:01;10.90;99.90
67273;DHT22;54190;49.770;9.250;2024-02-21T15:44:27;10.90;99.90
67273;DHT22;54190;49.770;9.250;2024-02-21T15:46:53;10.80;99.90
67273;DHT22;54190;49.770;9.250;2024-02-21T15:49:18;10.70;99.90
67273;DHT22;54190;49.770;9.250;2024-02-21T15:51:44;10.70;99.90